Time;durP1;ratioP1;P1;durP2;ratioP2;P2;SDS_P1;SDS_P2;PMS_P1;PMS_P2;Temp;Humidity;BMP_temperature;BMP_pressure;BME280_temperature;BME280_humidity;BME280_pressure;Samples;Min_cycle;Max_cycle;Signal;HPM_P1;HPM_P2
2023/03/19 00:02:13;;;;;;;2.10;1.50;;;13.20;99.90;;;;;;4937372;28;20706;-90
2023/03/19 00:04:39;;;;;;;2.67;1.52;;;13.20;99.90;;;;;;4925921;28;20260;-89
2023/03/19 00:07:05;;;;;;;2.93;1.70;;;13.20;99.90;;;;;;4931658;28;20552;-90
2023/03/19 00:09:31;;;;;;;2.72;1.70;;;13.20;99.90;;;;;;4912968;28;20102;-88
2023/03/19 00:11:56;;;;;;;2.27;1.50;;;13.20;99.90;;;;;;4934045;28;20536;-89
2023/03/19 00:14:22;;;;;;;2.58;1.58;;;13.20;99.90;;;;;;4927265;28;20032;-90
2023/03/19 00:16:49;;;;;;;2.55;1.65;;;13.20;99.90;;;;;;4940495;28;20043;-89
2023/03/19 00:19:14;;;;;;;1.98;1.40;;;13.20;99.90;;;;;;4913697;29;20031;-90
2023/03/19 00:21:40;;;;;;;2.37;1.67;;;13.20;99.90;;;;;;4936025;28;20606;-88
2023/03/19 00:24:06;;;;;;;2.20;1.70;;;13.20;99.90;;;;;;4908792;28;20417;-89
2023/03/19 00:26:33;;;;;;;2.05;1.65;;;13.20;99.90;;;;;;4935527;28;20066;-88
2023/03/19 00:29:00;;;;;;;2.57;1.60;;;13.20;99.90;;;;;;4937029;29;20863;-88
2023/03/19 00:31:27;;;;;;;2.50;1.50;;;13.20;99.90;;;;;;4926348;28;20209;-90
2023/03/19 00:33:56;;;;;;;2.30;1.48;;;13.20;99.90;;;;;;4947178;28;20594;-88
2023/03/19 00:36:22;;;;;;;1.90;1.27;;;13.20;99.90;;;;;;4933621;28;20035;-89
2023/03/19 00:38:48;;;;;;;2.50;1.55;;;13.10;99.90;;;;;;4904509;28;20262;-88
2023/03/19 00:41:16;;;;;;;3.43;1.53;;;13.10;99.90;;;;;;4921904;29;20019;-88
2023/03/19 00:43:41;;;;;;;3.00;1.70;;;13.10;99.90;;;;;;4949742;28;20031;-90
2023/03/19 00:46:07;;;;;;;2.80;1.73;;;13.10;99.90;;;;;;4931000;28;20046;-89
2023/03/19 00:48:33;;;;;;;3.40;1.70;;;13.10;99.90;;;;;;4945674;28;20015;-89
2023/03/19 00:51:06;;;;;;;3.28;1.70;;;13.10;99.90;;;;;;4931475;28;20066;-88
2023/03/19 00:53:36;;;;;;;2.63;1.65;;;13.00;99.90;;;;;;4923842;28;20390;-89
2023/03/19 00:56:02;;;;;;;2.17;1.43;;;13.00;99.90;;;;;;4914774;28;20249;-88
2023/03/19 00:58:28;;;;;;;2.28;1.67;;;13.00;99.90;;;;;;4934150;28;20035;-89
2023/03/19 01:00:54;;;;;;;2.25;1.65;;;13.00;99.90;;;;;;4928425;28;20592;-89
2023/03/19 01:03:20;;;;;;;2.43;1.60;;;13.00;99.90;;;;;;4935929;29;20027;-89
2023/03/19 01:05:48;;;;;;;2.55;1.60;;;13.00;99.90;;;;;;4927672;28;20024;-89
2023/03/19 01:08:16;;;;;;;2.70;1.50;;;13.00;99.90;;;;;;4928613;28;20357;-90
2023/03/19 01:10:42;;;;;;;2.25;1.40;;;13.00;99.90;;;;;;4910469;28;20436;-89
2023/03/19 01:13:08;;;;;;;2.60;1.50;;;13.00;99.90;;;;;;4915302;28;20028;-90
2023/03/19 01:15:42;;;;;;;2.30;1.63;;;13.00;99.90;;;;;;4915603;29;20871;-89
2023/03/19 01:18:09;;;;;;;2.10;1.45;;;13.00;99.90;;;;;;4934226;28;20024;-89
2023/03/19 01:20:36;;;;;;;1.97;1.47;;;12.90;99.90;;;;;;4928510;28;20159;-89
2023/03/19 01:23:03;;;;;;;3.42;1.90;;;13.00;99.90;;;;;;4922361;29;20229;-89
2023/03/19 01:25:29;;;;;;;2.15;1.45;;;13.00;99.90;;;;;;4906196;28;20035;-89
2023/03/19 01:27:54;;;;;;;2.80;1.60;;;12.90;99.90;;;;;;4918776;28;20531;-88
2023/03/19 01:30:20;;;;;;;3.20;1.50;;;12.90;99.90;;;;;;4919340;29;20071;-88
2023/03/19 01:32:46;;;;;;;2.70;1.70;;;12.90;99.90;;;;;;4910542;29;20583;-88
2023/03/19 01:35:12;;;;;;;2.40;1.47;;;12.90;99.90;;;;;;4932313;28;21274;-88
2023/03/19 01:37:37;;;;;;;3.20;1.63;;;12.90;99.90;;;;;;4919480;28;20524;-89
2023/03/19 01:40:04;;;;;;;2.93;1.67;;;12.90;99.90;;;;;;4906920;29;20166;-88
2023/03/19 01:42:31;;;;;;;2.45;1.52;;;12.90;99.90;;;;;;4897907;28;20019;-89
2023/03/19 01:44:57;;;;;;;2.17;1.60;;;12.90;99.90;;;;;;4917129;29;20039;-88
2023/03/19 01:47:37;;;;;;;2.35;1.40;;;13.00;99.90;;;;;;4926242;28;20034;-89
2023/03/19 01:50:03;;;;;;;1.98;1.50;;;13.00;99.90;;;;;;4918136;29;20132;-89
2023/03/19 01:52:32;;;;;;;2.20;1.53;;;13.00;99.90;;;;;;4928812;28;20023;-90
2023/03/19 01:55:01;;;;;;;2.45;1.73;;;13.00;99.90;;;;;;4926895;28;20266;-90
2023/03/19 01:57:28;;;;;;;2.10;1.42;;;13.10;99.90;;;;;;4916197;28;20320;-89
2023/03/19 01:59:57;;;;;;;2.40;1.90;;;13.10;99.90;;;;;;4933035;28;20130;-88
2023/03/19 02:02:25;;;;;;;2.28;1.70;;;13.10;99.90;;;;;;4928614;28;20027;-88
2023/03/19 02:05:05;;;;;;;3.70;1.50;;;13.10;99.90;;;;;;4945464;28;20024;-89
2023/03/19 02:07:33;;;;;;;2.30;1.35;;;13.10;99.90;;;;;;4928056;28;20031;-90
2023/03/19 02:10:00;;;;;;;1.98;1.45;;;13.10;99.90;;;;;;4912728;28;20163;-89
2023/03/19 02:12:26;;;;;;;2.38;1.25;;;13.20;99.90;;;;;;4919014;28;20028;-89
2023/03/19 02:14:52;;;;;;;2.23;1.73;;;13.10;99.90;;;;;;4934340;29;20308;-89
2023/03/19 02:17:20;;;;;;;2.03;1.60;;;13.20;99.90;;;;;;4934002;29;20102;-88
2023/03/19 02:19:56;;;;;;;2.13;1.42;;;13.20;99.90;;;;;;4942954;28;20039;-88
2023/03/19 02:22:26;;;;;;;2.35;1.65;;;13.20;99.90;;;;;;4915913;29;20023;-89
2023/03/19 02:25:05;;;;;;;2.00;1.48;;;13.20;99.90;;;;;;4921015;28;22621;-88
2023/03/19 02:27:31;;;;;;;1.80;1.40;;;13.20;99.90;;;;;;4912475;28;20034;-90
2023/03/19 02:29:56;;;;;;;2.67;1.92;;;13.20;99.90;;;;;;4919084;29;20822;-89
2023/03/19 02:32:22;;;;;;;2.07;1.50;;;13.20;99.90;;;;;;4934831;28;20034;-89
2023/03/19 02:34:49;;;;;;;2.25;1.55;;;13.20;99.90;;;;;;4924102;28;20234;-89
2023/03/19 02:37:25;;;;;;;2.78;1.85;;;13.20;99.90;;;;;;4917149;29;20106;-89
2023/03/19 02:39:57;;;;;;;2.40;1.70;;;13.20;99.90;;;;;;4927630;28;20055;-88
2023/03/19 02:42:26;;;;;;;2.47;1.70;;;13.20;99.90;;;;;;4908631;29;20452;-88
2023/03/19 02:44:52;;;;;;;2.63;1.80;;;13.20;99.90;;;;;;4927548;28;20835;-89
2023/03/19 02:47:18;;;;;;;2.80;1.80;;;13.20;99.90;;;;;;4921028;29;20042;-89
2023/03/19 02:49:43;;;;;;;3.37;2.00;;;13.20;99.90;;;;;;4926157;28;20034;-89
2023/03/19 02:52:09;;;;;;;4.00;2.30;;;13.20;99.90;;;;;;4921767;29;20027;-89
2023/03/19 02:54:35;;;;;;;3.53;2.23;;;13.20;99.90;;;;;;4931166;29;20325;-89
2023/03/19 02:57:01;;;;;;;3.85;2.53;;;13.20;99.90;;;;;;4911648;29;20366;-89
2023/03/19 02:59:26;;;;;;;3.00;2.20;;;13.20;99.90;;;;;;4902320;29;20027;-90
2023/03/19 03:01:52;;;;;;;3.65;2.40;;;13.20;99.90;;;;;;4930927;28;20427;-88
2023/03/19 03:04:18;;;;;;;3.90;2.63;;;13.20;99.90;;;;;;4939203;29;20505;-89
2023/03/19 03:06:44;;;;;;;4.45;2.60;;;13.20;99.90;;;;;;4914021;29;20031;-90
2023/03/19 03:09:11;;;;;;;3.50;2.38;;;13.20;99.90;;;;;;4918833;29;20127;-89
2023/03/19 03:11:37;;;;;;;3.77;2.30;;;13.20;99.90;;;;;;4918526;28;20043;-90
2023/03/19 03:14:03;;;;;;;3.60;2.63;;;13.20;99.90;;;;;;4898335;28;20313;-88
2023/03/19 03:16:29;;;;;;;3.75;2.45;;;13.10;99.90;;;;;;4937674;28;20603;-89
2023/03/19 03:18:55;;;;;;;4.50;2.37;;;13.10;99.90;;;;;;4953370;28;20276;-88
2023/03/19 03:21:20;;;;;;;3.97;2.45;;;13.10;99.90;;;;;;4931941;28;20318;-88
2023/03/19 03:23:47;;;;;;;3.90;2.70;;;13.00;99.90;;;;;;4912753;28;20335;-89
2023/03/19 03:26:13;;;;;;;3.97;2.50;;;13.00;99.90;;;;;;4941403;28;20332;-88
2023/03/19 03:28:39;;;;;;;3.72;2.40;;;13.00;99.90;;;;;;4926940;28;20429;-90
2023/03/19 03:31:05;;;;;;;3.13;2.13;;;13.00;99.90;;;;;;4899215;28;20140;-89
2023/03/19 03:33:31;;;;;;;3.70;2.55;;;12.90;99.90;;;;;;4925133;29;20036;-89
2023/03/19 03:35:57;;;;;;;3.10;2.20;;;12.90;99.90;;;;;;4920786;29;20058;-88
2023/03/19 03:38:23;;;;;;;3.72;2.30;;;12.80;99.90;;;;;;4916234;29;20110;-89
2023/03/19 03:40:51;;;;;;;3.87;2.40;;;12.80;99.90;;;;;;4924994;28;20613;-89
2023/03/19 03:43:18;;;;;;;4.68;2.45;;;12.70;99.90;;;;;;4936564;29;20182;-88
2023/03/19 03:45:44;;;;;;;3.38;2.35;;;12.70;99.90;;;;;;4891037;29;20090;-89
2023/03/19 03:48:09;;;;;;;3.58;2.42;;;12.60;99.90;;;;;;4936519;28;20028;-89
2023/03/19 03:50:36;;;;;;;3.77;2.50;;;12.60;99.90;;;;;;4935912;28;20023;-89
2023/03/19 03:53:01;;;;;;;4.53;2.50;;;12.50;99.90;;;;;;4910137;28;20532;-88
2023/03/19 03:55:27;;;;;;;3.20;2.15;;;12.50;99.90;;;;;;4916382;29;20161;-89
2023/03/19 03:57:53;;;;;;;4.27;2.67;;;12.40;99.90;;;;;;4917174;29;20389;-89
2023/03/19 04:00:19;;;;;;;3.45;2.40;;;12.30;99.90;;;;;;4909362;28;20453;-89
2023/03/19 04:02:45;;;;;;;4.17;2.27;;;12.30;99.90;;;;;;4935090;28;20031;-89
2023/03/19 04:05:10;;;;;;;3.60;2.60;;;12.30;99.90;;;;;;4938799;28;20717;-88
2023/03/19 04:07:37;;;;;;;4.78;2.70;;;12.20;99.90;;;;;;4918697;29;20106;-90
2023/03/19 04:10:04;;;;;;;4.00;2.40;;;12.20;99.90;;;;;;4923057;28;20333;-88
2023/03/19 04:12:31;;;;;;;3.43;2.27;;;12.10;99.90;;;;;;4917651;29;20055;-89
2023/03/19 04:14:56;;;;;;;3.55;2.45;;;12.10;99.90;;;;;;4928701;28;21317;-89
2023/03/19 04:17:22;;;;;;;3.72;2.47;;;12.10;99.90;;;;;;4902852;28;20054;-90
2023/03/19 04:19:48;;;;;;;4.37;2.50;;;12.00;99.90;;;;;;4935909;29;20257;-87
2023/03/19 04:22:14;;;;;;;3.83;2.67;;;12.00;99.90;;;;;;4952989;28;20090;-89
2023/03/19 04:24:40;;;;;;;3.72;2.50;;;12.00;99.90;;;;;;4910311;29;20054;-89
2023/03/19 04:27:07;;;;;;;4.03;2.90;;;11.90;99.90;;;;;;4919612;29;20605;-88
2023/03/19 04:29:32;;;;;;;3.93;2.73;;;11.90;99.90;;;;;;4920711;29;20106;-89
2023/03/19 04:31:58;;;;;;;4.30;2.78;;;11.80;99.90;;;;;;4900156;28;20031;-89
2023/03/19 04:34:24;;;;;;;4.30;2.63;;;11.80;99.90;;;;;;4941770;28;20034;-88
2023/03/19 04:36:50;;;;;;;5.05;2.80;;;11.80;99.90;;;;;;4917898;29;20027;-88
2023/03/19 04:39:17;;;;;;;3.92;2.75;;;11.80;99.90;;;;;;4937417;29;20117;-88
2023/03/19 04:41:42;;;;;;;4.25;2.78;;;11.80;99.90;;;;;;4927359;29;20031;-89
2023/03/19 04:44:08;;;;;;;4.57;2.87;;;11.70;99.90;;;;;;4928494;28;20047;-89
2023/03/19 04:46:34;;;;;;;4.40;2.88;;;11.70;99.90;;;;;;4939966;28;20363;-89
2023/03/19 04:49:00;;;;;;;4.77;2.73;;;11.70;99.90;;;;;;4930015;28;20106;-88
2023/03/19 04:51:26;;;;;;;3.90;2.53;;;11.70;99.90;;;;;;4919779;29;20042;-89
2023/03/19 04:53:52;;;;;;;4.13;2.72;;;11.70;99.90;;;;;;4913301;29;20110;-89
2023/03/19 04:56:17;;;;;;;3.70;2.60;;;11.70;99.90;;;;;;4921651;29;20028;-89
2023/03/19 04:58:44;;;;;;;3.95;2.60;;;11.60;99.90;;;;;;4921724;28;20023;-88
2023/03/19 05:01:10;;;;;;;4.05;2.65;;;11.60;99.90;;;;;;4937399;28;20035;-88
2023/03/19 05:03:36;;;;;;;4.45;2.88;;;11.50;99.90;;;;;;4896120;28;20038;-90
2023/03/19 05:06:02;;;;;;;4.57;3.07;;;11.50;99.90;;;;;;4938105;28;20032;-88
2023/03/19 05:08:27;;;;;;;5.55;3.05;;;11.50;99.90;;;;;;4919416;29;20389;-89
2023/03/19 05:10:53;;;;;;;5.03;2.90;;;11.40;99.90;;;;;;4930332;29;20118;-89
2023/03/19 05:13:19;;;;;;;4.25;2.58;;;11.50;99.90;;;;;;4928512;28;20166;-89
2023/03/19 05:15:45;;;;;;;4.40;2.60;;;11.40;99.90;;;;;;4931091;29;20039;-88
2023/03/19 05:18:11;;;;;;;5.13;2.83;;;11.40;99.90;;;;;;4915516;28;20031;-89
2023/03/19 05:20:38;;;;;;;3.88;2.50;;;11.40;99.90;;;;;;4914878;29;20126;-89
2023/03/19 05:23:04;;;;;;;4.07;2.30;;;11.40;99.90;;;;;;4932804;28;20027;-88
2023/03/19 05:25:29;;;;;;;3.28;2.15;;;11.30;99.90;;;;;;4916032;29;20028;-89
2023/03/19 05:27:55;;;;;;;4.40;2.40;;;11.30;99.90;;;;;;4926318;28;20285;-88
2023/03/19 05:30:22;;;;;;;4.17;2.37;;;11.20;99.90;;;;;;4934344;29;20389;-87
2023/03/19 05:32:49;;;;;;;3.78;2.38;;;11.20;99.90;;;;;;4931130;29;20300;-88
2023/03/19 05:35:16;;;;;;;4.68;2.67;;;11.20;99.90;;;;;;4916595;28;20023;-88
2023/03/19 05:37:42;;;;;;;4.13;2.42;;;11.10;99.90;;;;;;4913994;29;20374;-90
2023/03/19 05:40:08;;;;;;;4.37;2.60;;;11.10;99.90;;;;;;4950570;28;20067;-88
2023/03/19 05:42:34;;;;;;;4.03;2.63;;;11.10;99.90;;;;;;4924723;28;20031;-89
2023/03/19 05:44:59;;;;;;;4.65;2.88;;;11.00;99.90;;;;;;4929071;29;20144;-89
2023/03/19 05:47:25;;;;;;;4.20;2.50;;;11.00;99.90;;;;;;4933786;29;20027;-90
2023/03/19 05:49:51;;;;;;;3.55;2.38;;;11.00;99.90;;;;;;4896025;29;20336;-88
2023/03/19 05:52:17;;;;;;;3.97;2.43;;;11.00;99.90;;;;;;4929691;28;20105;-88
2023/03/19 05:54:43;;;;;;;4.60;2.53;;;10.90;99.90;;;;;;4915365;29;20815;-87
2023/03/19 05:57:08;;;;;;;4.93;2.60;;;10.90;99.90;;;;;;4919946;29;20042;-88
2023/03/19 05:59:34;;;;;;;4.15;2.53;;;10.90;99.90;;;;;;4908007;29;20031;-89
2023/03/19 06:02:00;;;;;;;4.70;2.70;;;10.90;99.90;;;;;;4906561;28;20138;-89
2023/03/19 06:04:26;;;;;;;3.10;2.20;;;10.90;99.90;;;;;;4909975;28;20477;-88
2023/03/19 06:06:52;;;;;;;4.55;2.50;;;10.80;99.90;;;;;;4905809;28;20024;-90
2023/03/19 06:09:17;;;;;;;3.77;2.33;;;10.80;99.90;;;;;;4930557;29;20024;-89
2023/03/19 06:11:43;;;;;;;4.38;2.47;;;10.80;99.90;;;;;;4934655;28;20393;-89
2023/03/19 06:14:09;;;;;;;4.67;2.60;;;10.80;99.90;;;;;;4919642;28;20335;-88
2023/03/19 06:16:35;;;;;;;4.53;2.27;;;10.80;99.90;;;;;;4919852;29;20338;-87
2023/03/19 06:19:01;;;;;;;4.78;2.28;;;10.80;99.90;;;;;;4913602;28;20035;-89
2023/03/19 06:21:28;;;;;;;5.00;2.60;;;10.80;99.90;;;;;;4914061;28;20029;-89
2023/03/19 06:23:55;;;;;;;4.10;2.30;;;10.80;99.90;;;;;;4909781;29;20023;-89
2023/03/19 06:26:21;;;;;;;4.95;2.58;;;10.80;99.90;;;;;;4925487;28;20030;-89
2023/03/19 06:28:47;;;;;;;4.63;2.80;;;10.80;99.90;;;;;;4923983;28;20500;-88
2023/03/19 06:31:13;;;;;;;6.03;2.73;;;10.80;99.90;;;;;;4936477;28;20133;-89
2023/03/19 06:33:39;;;;;;;4.18;2.50;;;10.80;99.90;;;;;;4928779;28;20169;-88
2023/03/19 06:36:05;;;;;;;4.95;2.42;;;10.80;99.90;;;;;;4892574;29;20034;-89
2023/03/19 06:38:30;;;;;;;4.53;2.47;;;10.80;99.90;;;;;;4913221;28;20221;-89
2023/03/19 06:40:56;;;;;;;4.30;2.28;;;10.80;99.90;;;;;;4917037;29;20146;-89
2023/03/19 06:43:22;;;;;;;4.30;2.30;;;10.80;99.90;;;;;;4902494;28;20474;-90
2023/03/19 06:45:47;;;;;;;4.53;2.13;;;10.80;99.90;;;;;;4906448;29;20043;-89
2023/03/19 06:48:14;;;;;;;4.10;2.17;;;10.80;99.90;;;;;;4912240;29;20024;-88
2023/03/19 06:50:40;;;;;;;3.75;2.20;;;10.80;99.90;;;;;;4913424;28;20048;-89
2023/03/19 06:53:06;;;;;;;3.85;2.30;;;10.80;99.90;;;;;;4907714;29;20618;-88
2023/03/19 06:55:32;;;;;;;5.10;2.40;;;10.80;99.90;;;;;;4934006;28;20392;-89
2023/03/19 06:57:58;;;;;;;4.30;2.47;;;10.80;99.90;;;;;;4912406;29;20237;-89
2023/03/19 07:00:24;;;;;;;4.57;2.22;;;10.80;99.90;;;;;;4894403;29;20293;-87
2023/03/19 07:02:49;;;;;;;4.07;2.30;;;10.80;99.90;;;;;;4933298;28;20066;-88
2023/03/19 07:05:15;;;;;;;4.40;2.22;;;10.80;99.90;;;;;;4894959;28;20066;-89
2023/03/19 07:07:41;;;;;;;4.70;2.40;;;10.80;99.90;;;;;;4919878;28;20050;-88
2023/03/19 07:10:07;;;;;;;4.43;2.47;;;10.80;99.90;;;;;;4915716;29;20027;-89
2023/03/19 07:12:33;;;;;;;4.40;2.30;;;10.80;99.90;;;;;;4917016;29;20348;-88
2023/03/19 07:14:59;;;;;;;4.67;2.40;;;10.80;99.90;;;;;;4910276;29;20519;-89
2023/03/19 07:17:26;;;;;;;4.80;2.40;;;10.90;99.90;;;;;;4915077;29;20023;-88
2023/03/19 07:19:51;;;;;;;4.70;2.50;;;10.80;99.90;;;;;;4932741;29;20039;-88
2023/03/19 07:22:18;;;;;;;4.53;2.47;;;10.90;99.90;;;;;;4885131;28;20623;-89
2023/03/19 07:24:44;;;;;;;5.75;2.90;;;11.00;99.90;;;;;;4934163;28;20392;-87
2023/03/19 07:27:10;;;;;;;5.05;2.88;;;11.10;99.90;;;;;;4905876;28;20024;-88
2023/03/19 07:29:36;;;;;;;6.40;3.25;;;11.30;99.90;;;;;;4913583;28;20027;-89
2023/03/19 07:32:01;;;;;;;5.77;3.00;;;11.50;99.90;;;;;;4912693;29;20290;-87
2023/03/19 07:34:27;;;;;;;6.00;3.30;;;11.70;99.90;;;;;;4940318;28;20065;-88
2023/03/19 07:36:53;;;;;;;5.67;3.30;;;11.90;99.90;;;;;;4891815;28;20775;-88
2023/03/19 07:39:19;;;;;;;5.43;3.30;;;12.10;99.90;;;;;;4927704;28;20372;-89
2023/03/19 07:41:47;;;;;;;5.78;3.25;;;12.40;99.90;;;;;;4921528;29;20027;-89
2023/03/19 07:44:14;;;;;;;5.82;3.33;;;12.70;99.90;;;;;;4934245;28;20134;-90
2023/03/19 07:46:40;;;;;;;5.83;3.00;;;12.90;99.90;;;;;;4910587;29;20046;-91
2023/03/19 07:49:06;;;;;;;6.63;3.28;;;13.10;99.90;;;;;;4934732;28;20674;-89
2023/03/19 07:51:32;;;;;;;4.63;2.67;;;13.30;99.90;;;;;;4949840;28;20071;-89
2023/03/19 07:53:58;;;;;;;6.22;3.00;;;13.40;99.90;;;;;;4894647;28;20129;-88
2023/03/19 07:56:24;;;;;;;4.47;2.40;;;13.50;99.90;;;;;;4920421;29;20038;-89
2023/03/19 07:58:50;;;;;;;4.90;2.13;;;13.60;99.90;;;;;;4915497;29;20258;-89
2023/03/19 08:01:17;;;;;;;4.07;2.35;;;13.80;99.90;;;;;;4914525;29;20106;-88
2023/03/19 08:03:42;;;;;;;5.20;2.47;;;13.90;99.90;;;;;;4909005;29;20031;-90
2023/03/19 08:06:08;;;;;;;3.35;2.15;;;14.10;99.90;;;;;;4937083;28;20026;-89
2023/03/19 08:08:35;;;;;;;5.67;2.50;;;14.30;99.90;;;;;;4925285;28;20027;-90
2023/03/19 08:11:01;;;;;;;3.88;1.95;;;14.50;99.90;;;;;;4925629;28;20035;-89
2023/03/19 08:13:28;;;;;;;6.03;2.03;;;14.60;99.90;;;;;;4919069;29;21879;-89
2023/03/19 08:15:55;;;;;;;4.75;2.08;;;14.60;99.90;;;;;;4933303;28;20337;-89
2023/03/19 08:18:21;;;;;;;5.93;2.27;;;14.60;99.90;;;;;;4928573;28;20066;-88
2023/03/19 08:20:47;;;;;;;4.07;2.10;;;14.60;99.90;;;;;;4932813;29;20493;-89
2023/03/19 08:23:13;;;;;;;4.50;1.95;;;14.60;99.90;;;;;;4921627;28;20592;-89
2023/03/19 08:25:38;;;;;;;3.17;1.95;;;14.60;99.90;;;;;;4899904;28;20031;-89
2023/03/19 08:28:04;;;;;;;3.60;1.70;;;14.60;99.90;;;;;;4906099;28;20906;-88
2023/03/19 08:30:30;;;;;;;4.07;2.00;;;14.70;99.90;;;;;;4920854;28;20113;-89
2023/03/19 08:32:56;;;;;;;5.28;2.15;;;14.80;99.90;;;;;;4927737;28;20106;-89
2023/03/19 08:35:22;;;;;;;4.40;1.90;;;14.80;99.90;;;;;;4903034;29;20113;-89
2023/03/19 08:37:48;;;;;;;4.43;1.95;;;14.90;99.90;;;;;;4915405;29;20145;-89
2023/03/19 08:40:14;;;;;;;4.07;1.83;;;15.00;99.90;;;;;;4931939;28;20027;-89
2023/03/19 08:42:41;;;;;;;4.50;1.80;;;15.20;99.90;;;;;;4926991;28;20035;-88
2023/03/19 08:45:11;;;;;;;4.78;1.77;;;15.30;99.90;;;;;;4904988;29;20707;-88
2023/03/19 08:47:37;;;;;;;4.63;1.95;;;15.40;99.90;;;;;;4932276;29;20113;-88
2023/03/19 08:50:05;;;;;;;7.03;1.95;;;15.60;99.90;;;;;;4926447;28;20030;-88
2023/03/19 08:52:31;;;;;;;4.13;1.80;;;15.90;99.90;;;;;;4910105;28;20035;-88
2023/03/19 08:54:56;;;;;;;5.97;1.80;;;16.30;99.90;;;;;;4937336;28;20027;-87
2023/03/19 08:57:22;;;;;;;4.53;1.67;;;16.70;99.90;;;;;;4894343;29;20565;-88
2023/03/19 08:59:48;;;;;;;4.23;1.53;;;17.20;99.90;;;;;;4923199;28;20128;-88
2023/03/19 09:02:13;;;;;;;4.53;1.70;;;17.80;99.90;;;;;;4918055;29;20085;-88
2023/03/19 09:04:40;;;;;;;5.20;1.70;;;18.30;99.90;;;;;;4923252;28;20134;-89
2023/03/19 09:07:06;;;;;;;4.13;1.65;;;18.90;99.90;;;;;;4943552;28;20086;-87
2023/03/19 09:09:32;;;;;;;4.23;1.77;;;19.30;99.90;;;;;;4931053;28;20497;-87
2023/03/19 09:11:57;;;;;;;5.15;1.63;;;19.70;99.90;;;;;;4893620;29;20019;-89
2023/03/19 09:14:23;;;;;;;3.75;1.60;;;20.10;99.90;;;;;;4944667;28;20027;-88
2023/03/19 09:16:49;;;;;;;4.27;1.30;;;20.50;99.90;;;;;;4923333;28;20402;-87
2023/03/19 09:19:14;;;;;;;2.73;1.50;;;20.70;99.90;;;;;;4931326;28;20065;-88
2023/03/19 09:21:41;;;;;;;4.53;1.70;;;20.90;99.90;;;;;;4923129;28;20287;-87
2023/03/19 09:24:06;;;;;;;3.38;1.65;;;21.10;99.90;;;;;;4930481;29;20023;-88
2023/03/19 09:26:32;;;;;;;3.97;1.50;;;21.20;99.90;;;;;;4895025;29;20027;-88
2023/03/19 09:28:58;;;;;;;3.58;1.50;;;21.20;99.90;;;;;;4919861;28;20015;-88
2023/03/19 09:31:24;;;;;;;3.67;1.40;;;21.10;99.90;;;;;;4919576;28;20050;-87
2023/03/19 09:33:50;;;;;;;4.32;1.60;;;21.00;99.90;;;;;;4914069;29;20138;-87
2023/03/19 09:36:15;;;;;;;4.10;1.50;;;20.80;99.90;;;;;;4925296;28;20312;-88
2023/03/19 09:38:41;;;;;;;2.83;1.63;;;20.70;99.90;;;;;;4925843;28;20151;-87
2023/03/19 09:41:32;;;;;;;3.60;1.40;;;20.70;99.90;;;;;;4930744;28;20245;-86
2023/03/19 09:44:03;;;;;;;5.10;1.38;;;20.60;99.90;;;;;;4893596;29;20045;-87
2023/03/19 09:46:50;;;;;;;3.10;1.58;;;20.70;99.90;;;;;;4920268;29;20031;-87
2023/03/19 09:49:16;;;;;;;2.63;1.50;;;20.60;99.90;;;;;;4914364;29;20213;-87
2023/03/19 09:51:52;;;;;;;4.30;1.70;;;20.60;99.90;;;;;;4928932;28;20110;-87
2023/03/19 09:54:32;;;;;;;4.20;1.77;;;20.40;99.90;;;;;;4913968;28;20098;-86
2023/03/19 09:56:58;;;;;;;3.10;1.80;;;20.20;99.90;;;;;;4930253;28;20023;-86
2023/03/19 09:59:26;;;;;;;3.35;1.55;;;20.10;99.90;;;;;;4912845;28;20086;-86
2023/03/19 10:02:15;;;;;;;4.65;1.80;;;19.90;99.90;;;;;;4915877;28;20130;-86
2023/03/19 10:05:20;;;;;;;3.35;1.98;;;19.70;99.90;;;;;;4924163;28;20051;-86
2023/03/19 10:08:21;;;;;;;2.55;1.80;;;19.70;99.90;;;;;;4898040;28;20046;-87
2023/03/19 10:10:49;;;;;;;4.83;1.97;;;19.70;99.90;;;;;;4879433;29;20540;-87
2023/03/19 10:13:38;;;;;;;3.40;1.90;;;19.60;99.90;;;;;;4929707;28;20559;-87
2023/03/19 10:16:11;;;;;;;3.90;1.92;;;19.50;99.90;;;;;;4922551;28;20175;-86
2023/03/19 10:18:38;;;;;;;3.72;1.70;;;19.30;99.90;;;;;;4922611;28;20027;-86
2023/03/19 10:21:12;;;;;;;5.25;2.00;;;19.10;99.90;;;;;;4917208;29;20035;-86
2023/03/19 10:23:47;;;;;;;5.80;1.80;;;19.00;99.90;;;;;;4926022;28;20138;-86
2023/03/19 10:26:18;;;;;;;5.00;2.00;;;18.90;99.90;;;;;;4932760;28;20222;-85
2023/03/19 10:28:53;;;;;;;3.70;1.92;;;18.80;99.90;;;;;;4929625;28;20079;-86
2023/03/19 10:31:29;;;;;;;4.88;1.88;;;18.70;99.90;;;;;;4909379;29;20061;-86
2023/03/19 10:34:36;;;;;;;4.28;1.90;;;18.60;99.90;;;;;;4923797;28;20090;-86
2023/03/19 10:37:12;;;;;;;3.20;1.70;;;18.50;99.90;;;;;;4840608;29;20235;-85
2023/03/19 10:39:40;;;;;;;4.97;2.15;;;18.40;99.90;;;;;;4857110;29;20569;-86
2023/03/19 10:42:18;;;;;;;3.47;2.05;;;18.40;99.90;;;;;;4894065;29;20040;-86
2023/03/19 10:44:59;;;;;;;4.75;1.95;;;18.30;99.90;;;;;;4927967;28;20746;-86
2023/03/19 10:47:26;;;;;;;4.93;1.80;;;18.30;99.90;;;;;;4934429;28;20074;-86
2023/03/19 10:49:52;;;;;;;3.83;1.90;;;18.20;99.90;;;;;;4912800;28;20305;-86
2023/03/19 10:52:29;;;;;;;3.95;1.73;;;18.10;99.90;;;;;;4931853;28;20288;-86
2023/03/19 10:55:01;;;;;;;4.47;1.70;;;18.00;99.90;;;;;;4923500;28;20485;-86
2023/03/19 10:57:30;;;;;;;3.15;1.80;;;18.00;99.90;;;;;;4934569;29;20106;-86
2023/03/19 11:00:04;;;;;;;4.18;2.20;;;17.90;99.90;;;;;;4930842;29;20655;-86
2023/03/19 11:02:31;;;;;;;4.43;2.00;;;17.90;99.90;;;;;;4908561;28;20032;-86
2023/03/19 11:05:17;;;;;;;6.00;2.15;;;17.90;99.90;;;;;;4926311;28;20031;-86
2023/03/19 11:07:42;;;;;;;4.70;2.13;;;17.90;99.90;;;;;;4883089;28;20667;-85
2023/03/19 11:10:17;;;;;;;4.20;2.30;;;18.00;99.90;;;;;;4935310;29;20114;-86
2023/03/19 11:12:50;;;;;;;4.53;2.30;;;18.00;99.90;;;;;;4912908;29;20019;-86
2023/03/19 11:15:22;;;;;;;5.00;2.20;;;18.10;99.90;;;;;;4927451;28;20089;-86
2023/03/19 11:17:56;;;;;;;7.50;2.45;;;18.20;99.90;;;;;;4900371;28;20122;-86
2023/03/19 11:20:37;;;;;;;6.35;2.30;;;18.40;99.90;;;;;;4926994;28;20252;-86
2023/03/19 11:23:14;;;;;;;5.53;2.07;;;18.50;99.90;;;;;;4905187;28;20142;-86
2023/03/19 11:25:46;;;;;;;4.20;2.17;;;18.60;99.90;;;;;;4937243;29;20023;-86
2023/03/19 11:28:13;;;;;;;5.13;2.30;;;18.60;99.90;;;;;;4924166;28;20051;-86
2023/03/19 11:31:18;;;;;;;5.13;2.30;;;18.60;99.90;;;;;;4934130;28;20033;-85
2023/03/19 11:33:46;;;;;;;4.10;2.05;;;18.50;99.90;;;;;;4889997;28;20035;-86
2023/03/19 11:36:27;;;;;;;4.07;2.10;;;18.50;99.90;;;;;;4932623;28;20039;-86
2023/03/19 11:39:06;;;;;;;4.65;2.72;;;18.40;99.90;;;;;;4920774;28;20075;-85
2023/03/19 11:42:09;;;;;;;5.32;2.90;;;18.30;99.90;;;;;;4935537;29;20043;-85
2023/03/19 11:44:48;;;;;;;5.40;3.58;;;18.30;99.90;;;;;;4931257;29;20047;-85
2023/03/19 11:47:35;;;;;;;4.85;2.80;;;18.30;99.90;;;;;;4923033;28;20943;-85
2023/03/19 11:50:22;;;;;;;5.30;3.10;;;18.20;99.90;;;;;;4950184;28;20563;-85
2023/03/19 11:53:12;;;;;;;5.40;3.28;;;18.10;99.90;;;;;;4935452;28;20785;-86
2023/03/19 11:55:49;;;;;;;8.48;4.05;;;18.00;99.90;;;;;;4921757;29;20031;-84
2023/03/19 11:58:40;;;;;;;7.70;4.13;;;17.90;99.90;;;;;;4906150;29;20089;-86
2023/03/19 12:01:24;;;;;;;6.82;4.20;;;17.80;99.90;;;;;;4947727;28;20093;-86
2023/03/19 12:03:59;;;;;;;8.37;4.60;;;17.80;99.90;;;;;;4907331;28;20336;-86
2023/03/19 12:06:55;;;;;;;9.30;5.05;;;17.90;99.90;;;;;;4948401;28;20039;-86
2023/03/19 12:09:48;;;;;;;7.47;4.60;;;18.30;99.90;;;;;;4899329;29;20089;-85
2023/03/19 12:12:37;;;;;;;6.72;4.72;;;18.80;99.90;;;;;;4936343;28;20067;-86
2023/03/19 12:15:28;;;;;;;6.57;4.32;;;19.20;99.90;;;;;;4937623;28;20039;-85
2023/03/19 12:18:14;;;;;;;7.10;4.03;;;19.50;99.90;;;;;;4911575;28;20508;-85
2023/03/19 12:21:00;;;;;;;6.45;4.03;;;19.60;99.90;;;;;;4936528;28;20059;-85
2023/03/19 12:23:44;;;;;;;6.85;3.90;;;19.60;99.90;;;;;;4932951;28;20552;-86
2023/03/19 12:26:21;;;;;;;6.03;3.97;;;19.60;99.90;;;;;;4929479;28;20726;-85
2023/03/19 12:29:01;;;;;;;7.07;4.20;;;19.50;99.90;;;;;;4925751;28;20352;-85
2023/03/19 12:31:41;;;;;;;6.43;4.00;;;19.50;99.90;;;;;;4914324;29;20385;-86
2023/03/19 12:34:28;;;;;;;6.15;4.30;;;19.50;99.90;;;;;;4899087;29;20031;-85
2023/03/19 12:37:28;;;;;;;6.35;4.05;;;19.90;99.90;;;;;;4920147;28;20413;-84
2023/03/19 12:40:21;;;;;;;5.65;3.92;;;20.50;99.90;;;;;;4911278;28;20592;-84
2023/03/19 12:42:47;;;;;;;6.53;3.78;;;20.90;99.90;;;;;;4911333;28;20098;-85
2023/03/19 12:45:39;;;;;;;6.13;3.83;;;21.20;99.90;;;;;;4921749;28;20054;-86
2023/03/19 12:48:15;;;;;;;6.15;3.53;;;21.30;99.90;;;;;;4934310;28;20023;-86
2023/03/19 12:50:46;;;;;;;6.40;3.80;;;21.40;99.90;;;;;;4926849;28;20040;-86
2023/03/19 12:53:54;;;;;;;7.20;3.92;;;21.30;99.90;;;;;;4935496;29;20114;-86
2023/03/19 12:56:47;;;;;;;7.22;3.88;;;21.20;99.90;;;;;;4872939;28;20149;-86
2023/03/19 12:59:13;;;;;;;5.20;3.37;;;21.10;99.90;;;;;;4935348;28;20397;-85
2023/03/19 13:01:51;;;;;;;5.63;3.30;;;21.00;99.90;;;;;;4922678;28;20117;-85